createdAt,value
2019-04-25T00:00:13.856Z,44.57
2019-04-25T00:02:44.988Z,45.78
2019-04-25T00:07:43.893Z,47.73
2019-04-25T00:10:13.967Z,46.15
2019-04-25T00:12:44.576Z,43.95
2019-04-25T00:15:15.547Z,45.73
2019-04-25T00:17:46.184Z,47.85
2019-04-25T00:20:16.179Z,47.35
2019-04-25T00:22:57.267Z,53.95
2019-04-25T00:25:28.460Z,46.25
2019-04-25T00:27:58.059Z,45.73
2019-04-25T00:32:57.956Z,49.63
2019-04-25T00:35:29.502Z,46.90
2019-04-25T00:37:59.056Z,49.38
2019-04-25T00:42:57.707Z,47.60
2019-04-25T00:45:27.171Z,49.85
2019-04-25T00:47:56.843Z,54.13
2019-04-25T00:50:26.459Z,46.10
2019-04-25T00:55:28.614Z,55.28
2019-04-25T00:57:57.557Z,54.15
2019-04-25T01:00:28.680Z,52.27
2019-04-25T01:03:01.645Z,51.45
2019-04-25T01:05:31.589Z,47.27
2019-04-25T01:08:02.123Z,47.43
2019-04-25T01:10:32.013Z,47.33
2019-04-25T01:13:03.082Z,52.58
2019-04-25T01:15:33.942Z,50.48
2019-04-25T01:18:04.871Z,53.63
2019-04-25T01:20:37.027Z,51.25
2019-04-25T01:23:06.451Z,50.58
2019-04-25T01:28:06.400Z,46.65
2019-04-25T01:33:05.391Z,47.38
2019-04-25T01:35:36.588Z,47.17
2019-04-25T01:46:55.626Z,46.35
2019-04-25T01:49:26.394Z,50.98
2019-04-25T01:54:27.516Z,47.65
2019-04-25T01:59:27.012Z,52.15
2019-04-25T02:01:56.814Z,53.73
2019-04-25T02:04:26.481Z,47.80
2019-04-25T02:09:25.671Z,53.50
2019-04-25T02:11:56.892Z,55.60
2019-04-25T02:14:27.572Z,55.20
2019-04-25T02:16:58.480Z,55.73
2019-04-25T02:19:30.099Z,52.43
2019-04-25T02:21:59.943Z,46.53
2019-04-25T02:24:29.680Z,52.00
2019-04-25T02:26:59.234Z,49.65
2019-04-25T02:32:00.257Z,56.07
2019-04-25T02:34:28.757Z,48.83
2019-04-25T02:39:29.232Z,56.55
2019-04-25T02:42:01.048Z,55.00
2019-04-25T02:44:31.599Z,52.05
2019-04-25T02:47:06.489Z,51.73
2019-04-25T02:49:44.772Z,55.88
2019-04-25T02:55:10.296Z,54.73
2019-04-25T02:57:38.172Z,57.80
2019-04-25T03:02:38.767Z,51.02
2019-04-25T03:07:38.746Z,52.35
2019-04-25T03:12:39.567Z,54.60
2019-04-25T03:17:39.980Z,50.55
2019-04-25T03:23:19.977Z,54.77
2019-04-25T03:25:49.596Z,54.53
2019-04-25T03:30:47.994Z,52.35
2019-04-25T03:36:19.496Z,53.00
2019-04-25T03:38:48.984Z,59.48
2019-04-25T03:41:18.456Z,58.28
2019-04-25T03:46:18.015Z,59.15
2019-04-25T03:48:47.806Z,56.83
2019-04-25T03:53:46.076Z,56.50
2019-04-25T03:58:44.266Z,56.60
2019-04-25T04:01:15.612Z,60.23
2019-04-25T04:03:45.141Z,59.45
2019-04-25T04:08:45.199Z,55.48
2019-04-25T04:13:45.332Z,64.27
2019-04-25T04:18:46.819Z,62.95
2019-04-25T04:21:33.268Z,56.13
2019-04-25T04:24:27.155Z,57.00
2019-04-25T04:27:06.724Z,56.45
2019-04-25T04:29:35.714Z,57.88
2019-04-25T04:34:33.964Z,55.57
2019-04-25T04:39:33.885Z,54.48
2019-04-25T04:42:03.904Z,53.85
2019-04-25T04:44:34.348Z,54.93
2019-04-25T04:47:05.096Z,53.73
2019-04-25T04:55:07.682Z,62.15
2019-04-25T04:57:34.160Z,58.08
2019-04-25T05:00:03.636Z,59.60
2019-04-25T05:02:53.278Z,56.65
2019-04-25T05:05:27.312Z,111.17
2019-04-25T05:07:58.495Z,64.53
2019-04-25T05:10:28.048Z,54.80
2019-04-25T05:15:26.443Z,58.90
2019-04-25T05:20:24.642Z,56.33
2019-04-25T05:22:54.918Z,68.33
2019-04-25T05:25:26.127Z,60.65
2019-04-25T05:28:02.859Z,61.50
2019-04-25T05:33:10.065Z,86.80
2019-04-25T05:38:08.275Z,62.07
2019-04-25T05:40:39.396Z,70.45
2019-04-25T05:43:29.575Z,71.82
2019-04-25T05:46:00.127Z,51.90
2019-04-25T05:51:11.004Z,61.57
2019-04-25T05:53:40.555Z,63.98
2019-04-25T05:58:38.911Z,55.35
2019-04-25T06:03:37.099Z,55.70
2019-04-25T06:06:06.711Z,50.35
2019-04-25T06:08:38.935Z,57.45
2019-04-25T06:11:16.019Z,53.05
2019-04-25T06:13:47.146Z,52.33
2019-04-25T06:16:27.062Z,52.98
2019-04-25T06:19:19.711Z,52.75
2019-04-25T06:21:49.289Z,50.52
2019-04-25T06:24:20.518Z,53.28
2019-04-25T06:27:08.032Z,67.50
2019-04-25T06:29:37.579Z,49.18
2019-04-25T06:34:37.551Z,55.20
2019-04-25T06:37:19.194Z,44.73
2019-04-25T06:39:48.758Z,44.75
2019-04-25T06:44:56.132Z,38.45
2019-04-25T06:47:39.215Z,41.70
2019-04-25T06:50:08.776Z,32.38
2019-04-25T06:55:07.093Z,33.23
2019-04-25T06:57:36.639Z,32.63
2019-04-25T07:02:39.189Z,28.55
2019-04-25T07:05:09.810Z,31.65
2019-04-25T07:07:40.623Z,34.85
2019-04-25T07:10:10.252Z,31.80
2019-04-25T07:12:39.812Z,24.90
2019-04-25T07:15:13.777Z,27.75
2019-04-25T07:17:45.469Z,26.07
2019-04-25T07:20:14.830Z,29.37
2019-04-25T07:25:13.971Z,31.65
2019-04-25T07:28:03.306Z,25.00
2019-04-25T07:30:48.634Z,23.42
2019-04-25T07:35:55.267Z,24.35
2019-04-25T07:38:24.754Z,27.67
2019-04-25T07:40:54.883Z,16.00
2019-04-25T07:45:53.569Z,22.13
2019-04-25T07:48:24.793Z,24.47
2019-04-25T07:50:54.589Z,22.42
2019-04-25T07:53:26.995Z,18.57
2019-04-25T07:55:55.320Z,19.48
2019-04-25T07:58:38.222Z,25.60
2019-04-25T08:00:59.220Z,30.40
2019-04-25T08:03:28.779Z,20.77
2019-04-25T08:05:59.932Z,22.02
2019-04-25T08:08:29.758Z,24.95
2019-04-25T08:11:08.359Z,19.60
2019-04-25T08:13:39.883Z,17.05
2019-04-25T08:16:11.167Z,20.25
2019-04-25T08:18:40.779Z,21.65
2019-04-25T08:21:10.267Z,18.48
2019-04-25T08:23:41.011Z,25.60
2019-04-25T08:26:31.103Z,17.25
2019-04-25T08:29:00.715Z,14.95
2019-04-25T08:34:00.925Z,20.45
2019-04-25T08:36:31.161Z,20.08
2019-04-25T08:39:00.987Z,25.52
2019-04-25T08:41:34.161Z,25.60
2019-04-25T08:44:04.080Z,20.50
2019-04-25T08:46:35.803Z,13.45
2019-04-25T08:49:19.116Z,17.10
2019-04-25T08:51:50.300Z,16.80
2019-04-25T08:54:40.073Z,15.40
2019-04-25T08:57:09.119Z,17.37
2019-04-25T08:59:44.735Z,21.45
2019-04-25T09:02:13.593Z,15.98
2019-04-25T09:04:44.869Z,25.23
2019-04-25T09:07:14.336Z,18.90
2019-04-25T09:12:14.270Z,23.52
2019-04-25T09:14:46.295Z,17.95
2019-04-25T09:17:14.999Z,25.02
2019-04-25T09:19:45.337Z,19.20
2019-04-25T09:22:15.073Z,17.23
2019-04-25T09:24:45.361Z,12.93
2019-04-25T09:27:15.139Z,15.72
2019-04-25T09:29:46.327Z,17.42
2019-04-25T09:32:16.925Z,20.27
2019-04-25T09:34:46.624Z,25.37
2019-04-25T09:37:16.100Z,24.25
2019-04-25T09:42:18.948Z,16.77
2019-04-25T09:44:53.739Z,17.55
2019-04-25T09:47:23.483Z,21.15
2019-04-25T09:49:53.840Z,13.50
2019-04-25T09:52:24.526Z,12.45
2019-04-25T09:54:58.413Z,16.32
2019-04-25T09:57:33.546Z,14.75
2019-04-25T10:00:04.948Z,10.60
2019-04-25T10:02:36.905Z,11.38
2019-04-25T10:05:07.267Z,12.40
2019-04-25T10:07:37.288Z,18.42
2019-04-25T10:10:07.759Z,11.05
2019-04-25T10:12:37.376Z,17.67
2019-04-25T10:15:39.092Z,16.77
2019-04-25T10:18:08.610Z,12.23
2019-04-25T10:20:38.084Z,17.50
2019-04-25T10:23:07.703Z,18.20
2019-04-25T10:25:38.055Z,13.20
2019-04-25T10:28:07.866Z,12.68
2019-04-25T10:30:37.420Z,11.22
2019-04-25T10:33:06.952Z,15.45
2019-04-25T10:35:46.686Z,12.18
2019-04-25T10:38:07.734Z,19.30
2019-04-25T10:40:37.216Z,14.35
2019-04-25T10:43:07.356Z,17.23
2019-04-25T10:45:37.256Z,9.75
2019-04-25T10:48:06.804Z,15.08
2019-04-25T10:50:36.350Z,12.05
2019-04-25T10:53:05.897Z,18.17
2019-04-25T10:55:35.535Z,14.25
2019-04-25T10:58:05.075Z,11.80
2019-04-25T11:00:42.451Z,12.82
2019-04-25T11:03:29.447Z,16.82
2019-04-25T11:05:58.935Z,13.08
2019-04-25T11:08:28.555Z,16.50
2019-04-25T11:10:59.304Z,10.05
2019-04-25T11:13:28.919Z,10.55
2019-04-25T11:15:58.455Z,9.58
2019-04-25T11:18:28.075Z,17.20
2019-04-25T11:20:57.620Z,16.27
2019-04-25T11:23:27.101Z,12.15
2019-04-25T11:25:56.641Z,12.28
2019-04-25T11:28:26.196Z,11.97
2019-04-25T11:30:55.676Z,12.15
2019-04-25T11:33:25.160Z,9.15
2019-04-25T11:35:56.213Z,12.55
2019-04-25T11:38:44.048Z,9.08
2019-04-25T11:41:18.111Z,10.95
2019-04-25T11:44:07.012Z,8.88
2019-04-25T11:46:39.197Z,13.98
2019-04-25T11:49:07.674Z,11.00
2019-04-25T11:51:37.212Z,21.20
2019-04-25T11:54:06.747Z,10.55
2019-04-25T11:56:36.308Z,13.03
2019-04-25T11:59:05.908Z,11.78
2019-04-25T12:01:35.612Z,11.28
2019-04-25T12:04:05.237Z,13.18
2019-04-25T12:06:34.857Z,9.08
2019-04-25T12:09:05.276Z,12.78
2019-04-25T12:11:36.052Z,18.07
2019-04-25T12:14:05.595Z,9.05
2019-04-25T12:16:35.076Z,8.45
2019-04-25T12:19:04.851Z,16.52
2019-04-25T12:21:34.569Z,15.40
2019-04-25T12:24:05.752Z,11.15
2019-04-25T12:26:35.345Z,21.95
2019-04-25T12:29:04.890Z,12.37
2019-04-25T12:31:34.485Z,12.18
2019-04-25T12:34:03.951Z,10.70
2019-04-25T12:36:34.108Z,12.50
2019-04-25T12:39:07.087Z,9.65
2019-04-25T12:41:38.351Z,13.53
2019-04-25T12:44:18.240Z,17.57
2019-04-25T12:46:50.308Z,16.57
2019-04-25T12:49:20.134Z,18.40
2019-04-25T12:51:49.815Z,9.88
2019-04-25T12:54:19.750Z,15.03
2019-04-25T12:56:50.311Z,11.63
2019-04-25T12:59:19.847Z,15.38
2019-04-25T13:01:49.574Z,16.35
2019-04-25T13:04:19.127Z,16.48
2019-04-25T13:06:48.862Z,16.23
2019-04-25T13:09:18.515Z,18.73
2019-04-25T13:11:48.140Z,12.68
2019-04-25T13:14:17.766Z,13.55
2019-04-25T13:16:47.323Z,24.67
2019-04-25T13:19:23.719Z,15.68
2019-04-25T13:21:47.963Z,9.95
2019-04-25T13:24:17.584Z,13.10
2019-04-25T13:26:53.138Z,12.88
2019-04-25T13:29:27.655Z,19.45
2019-04-25T13:32:13.933Z,14.00
2019-04-25T13:34:48.122Z,15.13
2019-04-25T13:37:17.666Z,15.95
2019-04-25T13:39:47.211Z,17.65
2019-04-25T13:42:16.976Z,17.57
2019-04-25T13:44:46.473Z,14.83
2019-04-25T13:47:15.911Z,15.63
2019-04-25T13:52:14.835Z,14.25
2019-04-25T13:54:44.739Z,20.45
2019-04-25T13:57:14.263Z,19.95
2019-04-25T13:59:44.104Z,11.33
2019-04-25T14:02:15.361Z,16.60
2019-04-25T14:04:44.915Z,16.10
2019-04-25T14:07:14.973Z,15.70
2019-04-25T14:09:44.777Z,20.48
2019-04-25T14:12:15.023Z,14.78
2019-04-25T14:14:44.485Z,12.28
2019-04-25T14:19:45.940Z,15.88
2019-04-25T14:22:15.529Z,18.50
2019-04-25T14:24:45.064Z,16.52
2019-04-25T14:27:16.282Z,18.27
2019-04-25T14:29:45.819Z,16.07
2019-04-25T14:32:15.971Z,14.18
2019-04-25T14:34:45.579Z,16.40
2019-04-25T14:37:15.071Z,15.58
2019-04-25T14:39:44.607Z,13.03
2019-04-25T14:42:14.102Z,18.15
2019-04-25T14:47:40.236Z,20.35
2019-04-25T14:50:09.856Z,20.12
2019-04-25T14:52:39.419Z,17.20
2019-04-25T14:55:13.250Z,15.25
2019-04-25T14:57:42.895Z,17.25
2019-04-25T15:00:16.995Z,18.05
2019-04-25T15:02:46.604Z,18.27
2019-04-25T15:05:16.089Z,14.55
2019-04-25T15:07:45.636Z,17.17
2019-04-25T15:10:15.187Z,17.77
2019-04-25T15:12:44.667Z,19.02
2019-04-25T15:17:46.483Z,16.95
2019-04-25T15:20:14.019Z,15.13
2019-04-25T15:25:12.507Z,16.42
2019-04-25T15:27:42.240Z,19.37
2019-04-25T15:30:13.360Z,15.72
2019-04-25T15:32:42.848Z,20.82
2019-04-25T15:35:13.961Z,18.02
2019-04-25T15:37:45.088Z,14.85
2019-04-25T15:40:16.201Z,23.65
2019-04-25T15:42:50.403Z,24.57
2019-04-25T15:45:31.192Z,19.15
2019-04-25T15:48:03.581Z,17.02
2019-04-25T15:50:34.024Z,23.15
2019-04-25T15:53:03.752Z,17.87
2019-04-25T15:55:33.371Z,22.10
2019-04-25T15:58:03.857Z,23.25
2019-04-25T16:03:06.079Z,18.42
2019-04-25T16:05:35.991Z,14.03
2019-04-25T16:08:06.232Z,16.32
2019-04-25T16:10:36.648Z,20.55
2019-04-25T16:13:07.317Z,17.98
2019-04-25T16:15:36.801Z,19.60
2019-04-25T16:20:36.107Z,20.90
2019-04-25T16:23:06.055Z,18.30
2019-04-25T16:25:35.747Z,15.45
2019-04-25T16:28:05.328Z,16.75
2019-04-25T16:30:34.905Z,16.42
2019-04-25T16:33:04.451Z,18.62
2019-04-25T16:35:34.012Z,21.17
2019-04-25T16:38:04.127Z,19.75
2019-04-25T16:40:34.979Z,20.02
2019-04-25T16:43:06.288Z,20.77
2019-04-25T16:45:37.772Z,21.15
2019-04-25T16:48:09.490Z,24.98
2019-04-25T16:50:39.966Z,36.00
2019-04-25T16:53:09.489Z,35.38
2019-04-25T17:00:50.777Z,107.75
2019-04-25T17:03:21.305Z,101.97
2019-04-25T17:05:50.852Z,99.50
2019-04-25T17:08:20.406Z,92.40
2019-04-25T17:10:50.011Z,55.33
2019-04-25T17:13:19.671Z,33.13
2019-04-25T17:16:05.844Z,35.08
2019-04-25T17:21:20.516Z,30.82
2019-04-25T17:23:49.999Z,24.65
2019-04-25T17:28:49.896Z,28.73
2019-04-25T17:31:56.827Z,32.83
2019-04-25T17:37:36.266Z,31.20
2019-04-25T17:40:20.048Z,53.78
2019-04-25T17:42:49.667Z,69.85
2019-04-25T17:45:20.864Z,43.40
2019-04-25T17:47:54.563Z,38.10
2019-04-25T17:50:22.587Z,27.32
2019-04-25T17:52:53.219Z,32.30
2019-04-25T17:55:22.832Z,35.03
2019-04-25T17:57:52.458Z,52.48
2019-04-25T18:03:06.311Z,37.48
2019-04-25T18:05:36.429Z,47.30
2019-04-25T18:08:06.341Z,45.80
2019-04-25T18:10:36.392Z,32.48
2019-04-25T18:13:09.321Z,28.95
2019-04-25T18:18:35.360Z,35.92
2019-04-25T18:21:24.643Z,34.88
2019-04-25T18:24:12.071Z,41.60
2019-04-25T18:26:48.969Z,34.35
2019-04-25T18:29:19.799Z,58.35
2019-04-25T18:31:49.364Z,81.40
2019-04-25T18:34:34.936Z,97.55
2019-04-25T18:37:18.443Z,92.27
2019-04-25T18:39:49.574Z,77.30
2019-04-25T18:42:37.860Z,73.87
2019-04-25T18:45:08.772Z,74.95
2019-04-25T18:47:38.336Z,55.03
2019-04-25T18:50:09.483Z,52.48
2019-04-25T18:52:47.143Z,55.33
2019-04-25T18:55:18.607Z,53.05
2019-04-25T18:57:49.788Z,49.93
2019-04-25T19:00:23.543Z,50.85
2019-04-25T19:03:09.818Z,54.67
2019-04-25T19:05:43.739Z,45.38
2019-04-25T19:08:13.336Z,45.63
2019-04-25T19:10:42.960Z,44.35
2019-04-25T19:13:13.291Z,38.13
2019-04-25T19:15:43.145Z,35.00
2019-04-25T19:18:13.040Z,38.90
2019-04-25T19:20:44.028Z,43.20
2019-04-25T19:23:13.738Z,36.50
2019-04-25T19:25:43.709Z,41.68
2019-04-25T19:28:13.539Z,38.10
2019-04-25T19:30:43.189Z,36.08
2019-04-25T19:33:13.824Z,48.90
2019-04-25T19:35:43.630Z,52.98
2019-04-25T19:38:13.326Z,53.68
2019-04-25T19:43:23.404Z,36.03
2019-04-25T19:45:58.386Z,37.48
2019-04-25T19:48:28.679Z,50.67
2019-04-25T19:53:26.947Z,68.50
2019-04-25T19:58:25.308Z,76.30
2019-04-25T20:06:24.778Z,68.33
2019-04-25T20:11:49.389Z,36.33
2019-04-25T20:14:19.339Z,47.58
2019-04-25T20:19:17.698Z,32.38
2019-04-25T20:24:15.943Z,45.52
2019-04-25T20:27:04.855Z,42.75
2019-04-25T20:29:34.587Z,38.95
2019-04-25T20:34:32.907Z,35.10
2019-04-25T20:37:02.447Z,34.88
2019-04-25T20:39:46.027Z,37.48
2019-04-25T20:42:29.199Z,38.50
2019-04-25T20:44:58.783Z,33.28
2019-04-25T20:49:57.785Z,34.25
2019-04-25T20:52:27.519Z,34.88
2019-04-25T20:57:46.901Z,35.45
2019-04-25T21:00:35.838Z,34.55
2019-04-25T21:03:05.490Z,35.80
2019-04-25T21:08:05.202Z,35.45
2019-04-25T21:10:34.856Z,34.03
2019-04-25T21:13:05.968Z,36.68
2019-04-25T21:15:41.163Z,32.83
2019-04-25T21:18:15.037Z,51.55
2019-04-25T21:20:44.598Z,35.90
2019-04-25T21:25:43.939Z,41.95
2019-04-25T21:30:42.268Z,34.18
2019-04-25T21:35:44.375Z,37.48
2019-04-25T21:38:15.617Z,39.58
2019-04-25T21:41:22.066Z,36.98
2019-04-25T21:43:55.131Z,40.55
2019-04-25T21:46:26.010Z,42.78
2019-04-25T21:48:56.858Z,33.35
2019-04-25T21:51:32.755Z,34.55
2019-04-25T21:54:03.688Z,36.13
2019-04-25T21:59:21.305Z,44.83
2019-04-25T22:01:51.176Z,41.58
2019-04-25T22:04:22.296Z,34.90
2019-04-25T22:07:11.691Z,31.27
2019-04-25T22:09:41.847Z,30.90
2019-04-25T22:12:12.364Z,31.55
2019-04-25T22:14:41.996Z,31.00
2019-04-25T22:17:11.671Z,35.65
2019-04-25T22:19:41.823Z,30.95
2019-04-25T22:22:17.550Z,36.23
2019-04-25T22:24:47.535Z,42.70
2019-04-25T22:29:49.081Z,34.55
2019-04-25T22:32:20.301Z,29.72
2019-04-25T22:34:52.827Z,45.80
2019-04-25T22:37:22.598Z,39.83
2019-04-25T22:39:52.400Z,39.48
2019-04-25T22:42:22.993Z,40.90
2019-04-25T22:47:21.322Z,37.80
2019-04-25T22:52:19.713Z,34.15
2019-04-25T22:57:18.413Z,38.25
2019-04-25T22:59:48.443Z,34.78
2019-04-25T23:06:07.586Z,39.30
2019-04-25T23:08:37.219Z,33.35
2019-04-25T23:13:36.020Z,36.68
2019-04-25T23:16:06.935Z,46.95
2019-04-25T23:18:36.696Z,54.65
2019-04-25T23:21:06.789Z,46.18
2019-04-25T23:23:36.571Z,42.78
2019-04-25T23:28:45.103Z,39.55
2019-04-25T23:31:27.952Z,41.20
2019-04-25T23:33:58.567Z,39.55
2019-04-25T23:36:28.088Z,39.10
2019-04-25T23:41:26.540Z,34.55
2019-04-25T23:46:25.267Z,39.40
2019-04-25T23:51:23.500Z,34.07
2019-04-25T23:53:53.612Z,36.80
2019-04-25T23:56:23.181Z,36.68
2019-04-25T23:58:53.180Z,40.30
